KHOU/HOU METAR and TAF weather

Enter ICAO airport designator
Station Type Date Time Source
KHOU METAR 2020/09/22 03:36 UTC NOAA

KHOU 220336Z 07016KT 4SM -RA BR BKN009 OVC015 25/23 A2988 RMK AO2 PK WND 07027/0313 P0019 T02500233


Station Type Date Time Source
KHOU Decoded METAR 2020/09/22 03:36 UTC NOAA

HOUSTON HOBBY AIRPORT, TX, United States (KHOU) 29-38N 095-17W 36M
Sep 21, 2020 - 11:36 PM EDT / 2020.09.22 0336 UTC
Wind: from the ENE (070 degrees) at 18 MPH (16 KT):0
Visibility: 4 mile(s):0
Sky conditions: overcast
Weather: light rain; mist
Precipitation last hour: 0.19 inches
Temperature: 77.0 F (25.0 C)
Dew Point: 73.9 F (23.3 C)
Relative Humidity: 90%
Pressure (altimeter): 29.88 in. Hg (1011 hPa)
ob: KHOU 220336Z 07016KT 4SM -RA BR BKN009 OVC015 25/23 A2988 RMK AO2 PK WND 07027/0313 P0019 T02500233
cycle: 3

Station Type Date Time Source
KHOU TAF 2020/09/22 03:09 UTC NOAA

TAF
AMD KHOU 220307Z 2203/2224 06015KT 4SM SHRA BR BKN009 OVC012
TEMPO 2203/2206 VRB15G25KT 2SM SHRA BR OVC007
FM220600 05015KT 2SM SHRA BR BKN007 OVC015
FM220800 04014KT 6SM SHRA BR OVC009
FM221200 05010KT 5SM SHRA BR OVC007
FM221800 07008KT 2SM SHRA BR OVC007

Example: see airport list